This is the latest recevied weather packets stored in our database for station/object W4CKA. If no packets are shown the sender has not sent any weather packets the latest 10 day(s).
| Time | Temp. | Humidity | Pressure | Rain* | Wind** | Luminosity | Snow |
|---|---|---|---|---|---|---|---|
| 1787420560 | 28.89° C | 79% | 1057.5 hPa | 0 mm | - | 686 W/m² | - |
| 1787419957 | 28.89° C | 77% | 1057.4 hPa | 0 mm | - | 710 W/m² | - |
| 1787419353 | 28.89° C | 75% | 1057.5 hPa | 0 mm | - | 314 W/m² | - |
| 1787418750 | 27.78° C | 81% | 1057.8 hPa | 0 mm | - | 757 W/m² | - |
| 1787418148 | 27.78° C | 82% | 1057.7 hPa | 0 mm | - | 666 W/m² | - |
| 1787417546 | 27.78° C | 81% | 1057.9 hPa | 0 mm | - | 190 W/m² | - |
| 1787416942 | 27.78° C | 81% | 1057.8 hPa | 0 mm | - | 690 W/m² | - |
| 1787416339 | 27.22° C | 83% | 1058 hPa | 0 mm | - | 646 W/m² | - |
| 1787415739 | 26.67° C | 84% | 1058.4 hPa | 0 mm | - | 680 W/m² | - |
| 1787415140 | 26.11° C | 88% | 1058.2 hPa | 0 mm | - | 229 W/m² | - |
| 1787414537 | 26.67° C | 85% | 1058.2 hPa | 0 mm | - | 391 W/m² | - |
| 1787413935 | 26.67° C | 87% | 1058 hPa | 0 mm | - | 563 W/m² | - |
| 1787413330 | 26.11° C | 85% | 1058.4 hPa | 0 mm | - | 201 W/m² | - |
| 1787412728 | 26.67° C | 85% | 1058.6 hPa | 0 mm | - | 683 W/m² | - |
| 1787412124 | 26.67° C | 87% | 1058.8 hPa | 0 mm | - | 656 W/m² | - |
| 1787411522 | 26.11° C | 88% | 1058.9 hPa | 0 mm | - | 324 W/m² | - |
| 1787410919 | 25° C | 89% | 1058.9 hPa | 0 mm | - | 635 W/m² | - |
| 1787410315 | 25.56° C | 88% | 1058.9 hPa | 0 mm | - | 165 W/m² | - |
| 1787409713 | 25° C | 89% | 1059.1 hPa | 0 mm | - | 193 W/m² | - |
| 1787409110 | 24.44° C | 92% | 1058.9 hPa | 0 mm | - | 201 W/m² | - |
| 1787408507 | 24.44° C | 89% | 1059.2 hPa | 0 mm | - | 223 W/m² | - |
| 1787407903 | 23.89° C | 91% | 1059 hPa | 0 mm | - | 264 W/m² | - |
| 1787407300 | 23.89° C | 90% | 1059.1 hPa | 0 mm | - | 432 W/m² | - |
| 1787406697 | 25° C | 88% | 1059.1 hPa | 0 mm | - | 199 W/m² | - |
| 1787406094 | 24.44° C | 90% | 1059.1 hPa | 0 mm | - | 231 W/m² | - |
* Rain latest hour (hover to see other rain measurements)
** Current wind speed in m/s (hover to see current wind gust speed)